sensor_id;sensor_type;location;lat;lon;timestamp;temperature;humidity
1700;DHT22;847;48.058;7.810;2022-09-17T00:00:03;14.00;97.40
1700;DHT22;847;48.058;7.810;2022-09-17T00:02:30;13.90;97.60
1700;DHT22;847;48.058;7.810;2022-09-17T00:04:57;13.80;97.70
1700;DHT22;847;48.058;7.810;2022-09-17T00:07:24;13.70;98.00
1700;DHT22;847;48.058;7.810;2022-09-17T00:09:50;13.70;97.90
1700;DHT22;847;48.058;7.810;2022-09-17T00:12:17;13.60;98.10
1700;DHT22;847;48.058;7.810;2022-09-17T00:14:45;13.70;98.00
1700;DHT22;847;48.058;7.810;2022-09-17T00:17:12;13.80;97.80
1700;DHT22;847;48.058;7.810;2022-09-17T00:19:38;13.80;97.90
1700;DHT22;847;48.058;7.810;2022-09-17T00:22:05;13.80;98.00
1700;DHT22;847;48.058;7.810;2022-09-17T00:24:32;13.70;97.50
1700;DHT22;847;48.058;7.810;2022-09-17T00:26:59;13.80;97.60
1700;DHT22;847;48.058;7.810;2022-09-17T00:29:25;13.70;97.50
1700;DHT22;847;48.058;7.810;2022-09-17T00:31:53;13.80;97.20
1700;DHT22;847;48.058;7.810;2022-09-17T00:34:20;13.70;97.20
1700;DHT22;847;48.058;7.810;2022-09-17T00:36:47;13.70;97.50
1700;DHT22;847;48.058;7.810;2022-09-17T00:39:13;13.70;97.60
1700;DHT22;847;48.058;7.810;2022-09-17T00:41:41;13.70;99.00
1700;DHT22;847;48.058;7.810;2022-09-17T00:44:40;13.70;98.80
1700;DHT22;847;48.058;7.810;2022-09-17T00:47:13;13.70;99.00
1700;DHT22;847;48.058;7.810;2022-09-17T00:49:41;13.60;99.00
1700;DHT22;847;48.058;7.810;2022-09-17T00:52:12;13.60;99.00
1700;DHT22;847;48.058;7.810;2022-09-17T00:54:43;13.50;99.00
1700;DHT22;847;48.058;7.810;2022-09-17T00:57:11;13.50;99.00
1700;DHT22;847;48.058;7.810;2022-09-17T00:59:38;13.50;99.00
1700;DHT22;847;48.058;7.810;2022-09-17T01:02:05;13.50;99.00
1700;DHT22;847;48.058;7.810;2022-09-17T01:04:33;13.50;97.80
1700;DHT22;847;48.058;7.810;2022-09-17T01:07:05;13.30;93.60
1700;DHT22;847;48.058;7.810;2022-09-17T01:09:42;13.20;94.10
1700;DHT22;847;48.058;7.810;2022-09-17T01:12:26;13.10;93.60
1700;DHT22;847;48.058;7.810;2022-09-17T01:15:07;13.10;94.70
1700;DHT22;847;48.058;7.810;2022-09-17T01:17:42;13.10;94.70
1700;DHT22;847;48.058;7.810;2022-09-17T01:20:42;13.10;94.50
1700;DHT22;847;48.058;7.810;2022-09-17T01:23:38;13.10;93.10
1700;DHT22;847;48.058;7.810;2022-09-17T01:29:14;13.00;95.40
1700;DHT22;847;48.058;7.810;2022-09-17T01:31:48;12.90;94.70
1700;DHT22;847;48.058;7.810;2022-09-17T01:34:21;12.90;95.20
1700;DHT22;847;48.058;7.810;2022-09-17T01:36:58;12.90;94.10
1700;DHT22;847;48.058;7.810;2022-09-17T01:39:33;13.00;93.40
1700;DHT22;847;48.058;7.810;2022-09-17T01:42:09;13.00;93.20
1700;DHT22;847;48.058;7.810;2022-09-17T01:44:43;12.90;93.90
1700;DHT22;847;48.058;7.810;2022-09-17T01:47:17;12.90;94.70
1700;DHT22;847;48.058;7.810;2022-09-17T01:49:46;12.90;94.00
1700;DHT22;847;48.058;7.810;2022-09-17T01:52:14;13.00;93.40
1700;DHT22;847;48.058;7.810;2022-09-17T01:54:43;13.00;92.60
1700;DHT22;847;48.058;7.810;2022-09-17T01:57:15;13.00;92.50
1700;DHT22;847;48.058;7.810;2022-09-17T01:59:46;13.00;91.80
1700;DHT22;847;48.058;7.810;2022-09-17T02:02:20;13.00;91.40
1700;DHT22;847;48.058;7.810;2022-09-17T02:04:54;13.10;92.60
1700;DHT22;847;48.058;7.810;2022-09-17T02:07:23;13.00;92.80
1700;DHT22;847;48.058;7.810;2022-09-17T02:09:54;12.90;93.50
1700;DHT22;847;48.058;7.810;2022-09-17T02:12:27;13.00;94.40
1700;DHT22;847;48.058;7.810;2022-09-17T02:14:57;13.10;93.80
1700;DHT22;847;48.058;7.810;2022-09-17T02:17:33;13.10;93.00
1700;DHT22;847;48.058;7.810;2022-09-17T02:20:01;13.10;93.50
1700;DHT22;847;48.058;7.810;2022-09-17T02:22:33;13.20;93.80
1700;DHT22;847;48.058;7.810;2022-09-17T02:25:05;13.20;93.50
1700;DHT22;847;48.058;7.810;2022-09-17T02:27:41;13.20;93.60
1700;DHT22;847;48.058;7.810;2022-09-17T02:30:13;13.20;92.10
1700;DHT22;847;48.058;7.810;2022-09-17T02:32:41;13.10;92.50
1700;DHT22;847;48.058;7.810;2022-09-17T02:35:08;13.20;93.40
1700;DHT22;847;48.058;7.810;2022-09-17T02:37:35;13.20;93.00
1700;DHT22;847;48.058;7.810;2022-09-17T02:40:03;13.10;93.30
1700;DHT22;847;48.058;7.810;2022-09-17T02:42:34;13.00;96.30
1700;DHT22;847;48.058;7.810;2022-09-17T02:45:06;12.90;98.50
1700;DHT22;847;48.058;7.810;2022-09-17T02:47:59;13.00;99.00
1700;DHT22;847;48.058;7.810;2022-09-17T02:50:34;13.00;98.50
1700;DHT22;847;48.058;7.810;2022-09-17T02:53:19;12.90;99.00
1700;DHT22;847;48.058;7.810;2022-09-17T02:56:00;12.90;99.00
1700;DHT22;847;48.058;7.810;2022-09-17T02:58:31;12.90;99.00
1700;DHT22;847;48.058;7.810;2022-09-17T03:01:03;12.90;99.00
1700;DHT22;847;48.058;7.810;2022-09-17T03:03:35;12.90;99.00
1700;DHT22;847;48.058;7.810;2022-09-17T03:06:04;12.90;99.00
1700;DHT22;847;48.058;7.810;2022-09-17T03:08:34;12.90;99.00
1700;DHT22;847;48.058;7.810;2022-09-17T03:11:02;12.80;99.00
1700;DHT22;847;48.058;7.810;2022-09-17T03:13:30;12.80;99.00
1700;DHT22;847;48.058;7.810;2022-09-17T03:15:57;12.80;99.00
1700;DHT22;847;48.058;7.810;2022-09-17T03:18:23;12.80;99.00
1700;DHT22;847;48.058;7.810;2022-09-17T03:20:51;12.80;99.00
1700;DHT22;847;48.058;7.810;2022-09-17T03:23:18;12.70;99.00
1700;DHT22;847;48.058;7.810;2022-09-17T03:25:45;12.70;99.00
1700;DHT22;847;48.058;7.810;2022-09-17T03:28:13;12.70;99.00
1700;DHT22;847;48.058;7.810;2022-09-17T03:30:40;12.70;99.00
1700;DHT22;847;48.058;7.810;2022-09-17T03:33:08;12.70;99.00
1700;DHT22;847;48.058;7.810;2022-09-17T03:35:34;12.80;99.00
1700;DHT22;847;48.058;7.810;2022-09-17T03:38:03;12.80;99.00
1700;DHT22;847;48.058;7.810;2022-09-17T03:40:30;12.80;99.00
1700;DHT22;847;48.058;7.810;2022-09-17T03:42:56;12.80;99.00
1700;DHT22;847;48.058;7.810;2022-09-17T03:45:23;12.70;99.00
1700;DHT22;847;48.058;7.810;2022-09-17T03:47:50;12.70;99.00
1700;DHT22;847;48.058;7.810;2022-09-17T03:50:16;12.70;99.00
1700;DHT22;847;48.058;7.810;2022-09-17T03:52:43;12.60;99.00
1700;DHT22;847;48.058;7.810;2022-09-17T03:55:11;12.60;99.00
1700;DHT22;847;48.058;7.810;2022-09-17T03:57:38;12.70;99.00
1700;DHT22;847;48.058;7.810;2022-09-17T04:00:05;12.80;99.00
1700;DHT22;847;48.058;7.810;2022-09-17T04:02:32;12.80;99.00
1700;DHT22;847;48.058;7.810;2022-09-17T04:04:59;12.90;99.00
1700;DHT22;847;48.058;7.810;2022-09-17T04:07:26;12.70;99.00
1700;DHT22;847;48.058;7.810;2022-09-17T04:09:52;12.70;99.00
1700;DHT22;847;48.058;7.810;2022-09-17T04:12:20;12.80;99.00
1700;DHT22;847;48.058;7.810;2022-09-17T04:14:47;12.80;99.00
1700;DHT22;847;48.058;7.810;2022-09-17T04:17:14;12.90;99.00
1700;DHT22;847;48.058;7.810;2022-09-17T04:19:42;12.90;99.00
1700;DHT22;847;48.058;7.810;2022-09-17T04:22:09;12.90;99.00
1700;DHT22;847;48.058;7.810;2022-09-17T04:24:36;13.00;99.00
1700;DHT22;847;48.058;7.810;2022-09-17T04:27:02;13.00;98.50
1700;DHT22;847;48.058;7.810;2022-09-17T04:29:31;13.00;98.50
1700;DHT22;847;48.058;7.810;2022-09-17T04:31:57;12.90;98.90
1700;DHT22;847;48.058;7.810;2022-09-17T04:34:24;13.00;98.40
1700;DHT22;847;48.058;7.810;2022-09-17T04:36:51;12.90;99.00
1700;DHT22;847;48.058;7.810;2022-09-17T04:39:18;12.80;99.00
1700;DHT22;847;48.058;7.810;2022-09-17T04:41:44;12.80;99.00
1700;DHT22;847;48.058;7.810;2022-09-17T04:44:12;12.80;99.00
1700;DHT22;847;48.058;7.810;2022-09-17T04:46:40;12.70;99.00
1700;DHT22;847;48.058;7.810;2022-09-17T04:49:07;12.70;99.00
1700;DHT22;847;48.058;7.810;2022-09-17T04:51:34;12.70;99.00
1700;DHT22;847;48.058;7.810;2022-09-17T04:54:01;12.60;99.00
1700;DHT22;847;48.058;7.810;2022-09-17T04:56:27;12.60;99.00
1700;DHT22;847;48.058;7.810;2022-09-17T04:58:54;12.50;99.00
1700;DHT22;847;48.058;7.810;2022-09-17T05:01:21;12.50;99.00
1700;DHT22;847;48.058;7.810;2022-09-17T05:03:49;12.60;99.00
1700;DHT22;847;48.058;7.810;2022-09-17T05:06:16;12.60;99.00
1700;DHT22;847;48.058;7.810;2022-09-17T05:08:43;12.50;99.00
1700;DHT22;847;48.058;7.810;2022-09-17T05:11:09;12.60;99.00
1700;DHT22;847;48.058;7.810;2022-09-17T05:13:36;12.60;99.00
1700;DHT22;847;48.058;7.810;2022-09-17T05:16:04;12.50;99.00
1700;DHT22;847;48.058;7.810;2022-09-17T05:18:31;12.50;99.00
1700;DHT22;847;48.058;7.810;2022-09-17T05:20:59;12.50;99.00
1700;DHT22;847;48.058;7.810;2022-09-17T05:23:25;12.40;99.00
1700;DHT22;847;48.058;7.810;2022-09-17T05:25:56;12.40;99.00
1700;DHT22;847;48.058;7.810;2022-09-17T05:28:23;12.40;99.00
1700;DHT22;847;48.058;7.810;2022-09-17T05:30:50;12.30;99.00
1700;DHT22;847;48.058;7.810;2022-09-17T05:33:17;12.30;99.00
1700;DHT22;847;48.058;7.810;2022-09-17T05:35:45;12.40;99.00
1700;DHT22;847;48.058;7.810;2022-09-17T05:38:13;12.30;99.00
1700;DHT22;847;48.058;7.810;2022-09-17T05:40:40;12.30;99.00
1700;DHT22;847;48.058;7.810;2022-09-17T05:43:08;12.30;99.00
1700;DHT22;847;48.058;7.810;2022-09-17T05:45:35;12.30;99.00
1700;DHT22;847;48.058;7.810;2022-09-17T05:48:04;12.40;99.00
1700;DHT22;847;48.058;7.810;2022-09-17T05:50:31;12.30;99.00
1700;DHT22;847;48.058;7.810;2022-09-17T05:53:02;12.30;99.00
1700;DHT22;847;48.058;7.810;2022-09-17T05:55:32;12.30;99.00
1700;DHT22;847;48.058;7.810;2022-09-17T05:57:59;12.30;99.00
1700;DHT22;847;48.058;7.810;2022-09-17T06:00:26;12.40;99.00
1700;DHT22;847;48.058;7.810;2022-09-17T06:02:54;12.50;99.00
1700;DHT22;847;48.058;7.810;2022-09-17T06:05:22;12.50;99.00
1700;DHT22;847;48.058;7.810;2022-09-17T06:07:49;12.40;99.00
1700;DHT22;847;48.058;7.810;2022-09-17T06:10:16;12.50;99.00
1700;DHT22;847;48.058;7.810;2022-09-17T06:12:44;12.50;99.00
1700;DHT22;847;48.058;7.810;2022-09-17T06:15:11;12.50;99.00
1700;DHT22;847;48.058;7.810;2022-09-17T06:17:39;12.60;99.00
1700;DHT22;847;48.058;7.810;2022-09-17T06:20:08;12.60;99.00
1700;DHT22;847;48.058;7.810;2022-09-17T06:22:35;12.60;99.00
1700;DHT22;847;48.058;7.810;2022-09-17T06:25:02;12.70;99.00
1700;DHT22;847;48.058;7.810;2022-09-17T06:27:30;12.70;99.00
1700;DHT22;847;48.058;7.810;2022-09-17T06:29:59;12.70;99.00
1700;DHT22;847;48.058;7.810;2022-09-17T06:32:26;12.80;99.00
1700;DHT22;847;48.058;7.810;2022-09-17T06:34:53;12.70;99.00
1700;DHT22;847;48.058;7.810;2022-09-17T06:37:26;12.70;99.00
1700;DHT22;847;48.058;7.810;2022-09-17T06:39:53;12.70;98.60
1700;DHT22;847;48.058;7.810;2022-09-17T06:42:20;12.60;98.20
1700;DHT22;847;48.058;7.810;2022-09-17T06:44:47;12.60;98.70
1700;DHT22;847;48.058;7.810;2022-09-17T06:47:15;12.50;99.00
1700;DHT22;847;48.058;7.810;2022-09-17T06:49:42;12.60;99.00
1700;DHT22;847;48.058;7.810;2022-09-17T06:52:09;12.70;99.00
1700;DHT22;847;48.058;7.810;2022-09-17T06:54:35;12.70;98.60
1700;DHT22;847;48.058;7.810;2022-09-17T06:57:02;12.70;99.00
1700;DHT22;847;48.058;7.810;2022-09-17T06:59:29;12.80;99.00
1700;DHT22;847;48.058;7.810;2022-09-17T07:01:56;12.80;99.00
1700;DHT22;847;48.058;7.810;2022-09-17T07:04:24;12.90;99.00
1700;DHT22;847;48.058;7.810;2022-09-17T07:06:51;12.90;96.50
1700;DHT22;847;48.058;7.810;2022-09-17T07:09:17;12.90;95.40
1700;DHT22;847;48.058;7.810;2022-09-17T07:11:44;12.90;96.10
1700;DHT22;847;48.058;7.810;2022-09-17T07:14:11;12.80;95.70
1700;DHT22;847;48.058;7.810;2022-09-17T07:16:38;12.90;95.50
1700;DHT22;847;48.058;7.810;2022-09-17T07:19:04;12.80;94.60
1700;DHT22;847;48.058;7.810;2022-09-17T07:21:33;12.90;95.60
1700;DHT22;847;48.058;7.810;2022-09-17T07:24:00;13.00;94.90
1700;DHT22;847;48.058;7.810;2022-09-17T07:26:27;13.10;94.40
1700;DHT22;847;48.058;7.810;2022-09-17T07:28:53;13.20;94.50
1700;DHT22;847;48.058;7.810;2022-09-17T07:31:20;13.20;93.00
1700;DHT22;847;48.058;7.810;2022-09-17T07:33:47;13.10;91.50
1700;DHT22;847;48.058;7.810;2022-09-17T07:36:15;13.00;92.00
1700;DHT22;847;48.058;7.810;2022-09-17T07:38:44;13.00;93.70
1700;DHT22;847;48.058;7.810;2022-09-17T07:41:13;13.00;91.70
1700;DHT22;847;48.058;7.810;2022-09-17T07:43:40;13.10;93.60
1700;DHT22;847;48.058;7.810;2022-09-17T07:46:12;13.20;93.20
1700;DHT22;847;48.058;7.810;2022-09-17T07:48:38;13.10;92.40
1700;DHT22;847;48.058;7.810;2022-09-17T07:51:05;13.20;94.00
1700;DHT22;847;48.058;7.810;2022-09-17T07:53:32;13.20;92.60
1700;DHT22;847;48.058;7.810;2022-09-17T07:56:00;13.20;91.30
1700;DHT22;847;48.058;7.810;2022-09-17T07:58:28;13.30;92.80
1700;DHT22;847;48.058;7.810;2022-09-17T08:00:59;13.30;93.50
1700;DHT22;847;48.058;7.810;2022-09-17T08:03:27;13.40;92.10
1700;DHT22;847;48.058;7.810;2022-09-17T08:05:59;13.40;93.60
1700;DHT22;847;48.058;7.810;2022-09-17T08:08:27;13.50;93.60
1700;DHT22;847;48.058;7.810;2022-09-17T08:11:00;13.50;93.70
1700;DHT22;847;48.058;7.810;2022-09-17T08:13:27;13.50;92.70
1700;DHT22;847;48.058;7.810;2022-09-17T08:15:57;13.50;93.80
1700;DHT22;847;48.058;7.810;2022-09-17T08:18:24;13.40;91.40
1700;DHT22;847;48.058;7.810;2022-09-17T08:20:51;13.30;91.30
1700;DHT22;847;48.058;7.810;2022-09-17T08:23:21;13.20;90.80
1700;DHT22;847;48.058;7.810;2022-09-17T08:25:51;13.10;89.90
1700;DHT22;847;48.058;7.810;2022-09-17T08:28:20;13.10;90.10
1700;DHT22;847;48.058;7.810;2022-09-17T08:30:46;13.10;89.70
1700;DHT22;847;48.058;7.810;2022-09-17T08:33:14;13.10;90.50
1700;DHT22;847;48.058;7.810;2022-09-17T08:35:41;13.10;91.10
1700;DHT22;847;48.058;7.810;2022-09-17T08:38:08;13.10;89.70
1700;DHT22;847;48.058;7.810;2022-09-17T08:40:41;13.20;90.70
1700;DHT22;847;48.058;7.810;2022-09-17T08:43:15;13.30;89.00
1700;DHT22;847;48.058;7.810;2022-09-17T08:45:51;13.20;89.20
1700;DHT22;847;48.058;7.810;2022-09-17T08:48:18;13.30;89.00
1700;DHT22;847;48.058;7.810;2022-09-17T08:50:44;13.40;89.60
1700;DHT22;847;48.058;7.810;2022-09-17T08:53:21;13.50;89.00
1700;DHT22;847;48.058;7.810;2022-09-17T08:55:55;13.70;88.70
1700;DHT22;847;48.058;7.810;2022-09-17T08:58:45;13.70;87.30
1700;DHT22;847;48.058;7.810;2022-09-17T09:01:25;13.80;87.90
1700;DHT22;847;48.058;7.810;2022-09-17T09:04:17;13.80;87.00
1700;DHT22;847;48.058;7.810;2022-09-17T09:06:52;13.90;87.30
1700;DHT22;847;48.058;7.810;2022-09-17T09:09:22;13.90;87.90
1700;DHT22;847;48.058;7.810;2022-09-17T09:11:56;13.90;87.10
1700;DHT22;847;48.058;7.810;2022-09-17T09:14:28;13.80;86.50
1700;DHT22;847;48.058;7.810;2022-09-17T09:16:59;13.80;87.40
1700;DHT22;847;48.058;7.810;2022-09-17T09:19:36;13.70;87.70
1700;DHT22;847;48.058;7.810;2022-09-17T09:22:13;13.70;88.00
1700;DHT22;847;48.058;7.810;2022-09-17T09:24:41;13.70;88.20
1700;DHT22;847;48.058;7.810;2022-09-17T09:27:16;13.70;88.20
1700;DHT22;847;48.058;7.810;2022-09-17T09:29:51;13.80;88.90
1700;DHT22;847;48.058;7.810;2022-09-17T09:32:35;13.90;87.00
1700;DHT22;847;48.058;7.810;2022-09-17T09:35:14;13.90;88.30
1700;DHT22;847;48.058;7.810;2022-09-17T09:37:45;14.00;87.80
1700;DHT22;847;48.058;7.810;2022-09-17T09:40:24;14.00;87.80
1700;DHT22;847;48.058;7.810;2022-09-17T09:42:52;14.00;89.40
1700;DHT22;847;48.058;7.810;2022-09-17T09:45:31;14.00;88.60
1700;DHT22;847;48.058;7.810;2022-09-17T09:48:06;14.00;89.30
1700;DHT22;847;48.058;7.810;2022-09-17T09:50:44;14.00;90.50
1700;DHT22;847;48.058;7.810;2022-09-17T09:53:21;13.80;88.90
1700;DHT22;847;48.058;7.810;2022-09-17T09:56:02;13.70;88.40
1700;DHT22;847;48.058;7.810;2022-09-17T09:58:34;13.70;88.20
1700;DHT22;847;48.058;7.810;2022-09-17T10:01:01;13.70;89.70
1700;DHT22;847;48.058;7.810;2022-09-17T10:03:31;13.80;89.20
1700;DHT22;847;48.058;7.810;2022-09-17T10:05:59;13.90;87.90
1700;DHT22;847;48.058;7.810;2022-09-17T10:08:29;14.00;88.20
1700;DHT22;847;48.058;7.810;2022-09-17T10:10:59;14.10;88.30
1700;DHT22;847;48.058;7.810;2022-09-17T10:13:28;14.00;87.90
1700;DHT22;847;48.058;7.810;2022-09-17T10:15:55;14.10;87.50
1700;DHT22;847;48.058;7.810;2022-09-17T10:18:23;14.10;87.20
1700;DHT22;847;48.058;7.810;2022-09-17T10:20:59;14.10;87.80
1700;DHT22;847;48.058;7.810;2022-09-17T10:23:28;14.20;86.90
1700;DHT22;847;48.058;7.810;2022-09-17T10:25:56;14.30;87.60
1700;DHT22;847;48.058;7.810;2022-09-17T10:28:33;14.40;88.00
1700;DHT22;847;48.058;7.810;2022-09-17T10:31:03;14.70;87.60
1700;DHT22;847;48.058;7.810;2022-09-17T10:33:35;14.90;85.30
1700;DHT22;847;48.058;7.810;2022-09-17T10:36:06;14.90;84.30
1700;DHT22;847;48.058;7.810;2022-09-17T10:38:36;15.00;83.60
1700;DHT22;847;48.058;7.810;2022-09-17T10:41:15;15.10;84.60
1700;DHT22;847;48.058;7.810;2022-09-17T10:43:43;15.20;82.70
1700;DHT22;847;48.058;7.810;2022-09-17T10:46:16;15.40;83.50
1700;DHT22;847;48.058;7.810;2022-09-17T10:48:48;15.40;82.50
1700;DHT22;847;48.058;7.810;2022-09-17T10:51:23;15.50;81.70
1700;DHT22;847;48.058;7.810;2022-09-17T10:54:27;15.40;81.00
1700;DHT22;847;48.058;7.810;2022-09-17T10:57:01;15.40;81.20
1700;DHT22;847;48.058;7.810;2022-09-17T11:00:02;15.70;80.20
1700;DHT22;847;48.058;7.810;2022-09-17T11:03:16;15.90;80.30
1700;DHT22;847;48.058;7.810;2022-09-17T11:06:04;15.70;79.80
1700;DHT22;847;48.058;7.810;2022-09-17T11:08:40;15.50;80.10
1700;DHT22;847;48.058;7.810;2022-09-17T11:11:10;15.70;79.00
1700;DHT22;847;48.058;7.810;2022-09-17T11:13:44;15.90;79.80
1700;DHT22;847;48.058;7.810;2022-09-17T11:16:22;16.00;78.80
1700;DHT22;847;48.058;7.810;2022-09-17T11:18:56;16.00;76.70
1700;DHT22;847;48.058;7.810;2022-09-17T11:21:35;15.90;77.30
1700;DHT22;847;48.058;7.810;2022-09-17T11:24:43;15.90;77.40
1700;DHT22;847;48.058;7.810;2022-09-17T11:27:32;15.70;79.30
1700;DHT22;847;48.058;7.810;2022-09-17T11:30:18;15.90;78.50
1700;DHT22;847;48.058;7.810;2022-09-17T11:35:57;15.80;78.30
1700;DHT22;847;48.058;7.810;2022-09-17T11:38:29;15.60;78.50
1700;DHT22;847;48.058;7.810;2022-09-17T11:41:07;15.50;77.90
1700;DHT22;847;48.058;7.810;2022-09-17T11:43:40;15.20;77.70
1700;DHT22;847;48.058;7.810;2022-09-17T11:46:12;15.20;78.20
1700;DHT22;847;48.058;7.810;2022-09-17T11:48:44;15.20;78.00
1700;DHT22;847;48.058;7.810;2022-09-17T11:51:20;15.30;79.50
1700;DHT22;847;48.058;7.810;2022-09-17T11:53:51;15.50;80.80
1700;DHT22;847;48.058;7.810;2022-09-17T11:56:25;15.60;79.40
1700;DHT22;847;48.058;7.810;2022-09-17T11:58:58;15.60;78.90
1700;DHT22;847;48.058;7.810;2022-09-17T12:01:32;15.60;79.70
1700;DHT22;847;48.058;7.810;2022-09-17T12:04:10;15.50;79.80
1700;DHT22;847;48.058;7.810;2022-09-17T12:06:45;15.30;78.10
1700;DHT22;847;48.058;7.810;2022-09-17T12:09:16;15.30;80.20
1700;DHT22;847;48.058;7.810;2022-09-17T12:11:48;15.20;81.40
1700;DHT22;847;48.058;7.810;2022-09-17T12:14:21;15.20;80.60
1700;DHT22;847;48.058;7.810;2022-09-17T12:16:51;15.20;81.10
1700;DHT22;847;48.058;7.810;2022-09-17T12:19:21;15.30;81.70
1700;DHT22;847;48.058;7.810;2022-09-17T12:21:53;15.50;81.30
1700;DHT22;847;48.058;7.810;2022-09-17T12:24:22;15.50;79.60
1700;DHT22;847;48.058;7.810;2022-09-17T12:27:14;15.60;79.30
1700;DHT22;847;48.058;7.810;2022-09-17T12:30:03;15.60;81.40
1700;DHT22;847;48.058;7.810;2022-09-17T12:32:44;15.60;79.30
1700;DHT22;847;48.058;7.810;2022-09-17T12:35:24;15.70;79.20
1700;DHT22;847;48.058;7.810;2022-09-17T12:38:07;15.60;78.00
1700;DHT22;847;48.058;7.810;2022-09-17T12:40:38;15.70;77.80
1700;DHT22;847;48.058;7.810;2022-09-17T12:43:30;15.90;76.70
1700;DHT22;847;48.058;7.810;2022-09-17T12:46:11;15.70;74.80
1700;DHT22;847;48.058;7.810;2022-09-17T12:51:51;15.90;72.40
1700;DHT22;847;48.058;7.810;2022-09-17T12:54:38;16.00;75.30
1700;DHT22;847;48.058;7.810;2022-09-17T12:57:18;16.30;76.90
1700;DHT22;847;48.058;7.810;2022-09-17T12:59:50;16.40;74.40
1700;DHT22;847;48.058;7.810;2022-09-17T13:02:23;16.50;72.60
1700;DHT22;847;48.058;7.810;2022-09-17T13:05:19;16.50;74.40
1700;DHT22;847;48.058;7.810;2022-09-17T13:08:10;16.50;75.30
1700;DHT22;847;48.058;7.810;2022-09-17T13:10:56;16.40;74.00
1700;DHT22;847;48.058;7.810;2022-09-17T13:13:36;16.40;74.60
1700;DHT22;847;48.058;7.810;2022-09-17T13:16:12;16.50;74.50
1700;DHT22;847;48.058;7.810;2022-09-17T13:18:45;16.50;72.80
1700;DHT22;847;48.058;7.810;2022-09-17T13:21:16;16.50;71.60
1700;DHT22;847;48.058;7.810;2022-09-17T13:23:47;16.40;72.50
1700;DHT22;847;48.058;7.810;2022-09-17T13:26:18;16.60;73.10
1700;DHT22;847;48.058;7.810;2022-09-17T13:28:47;16.70;73.80
1700;DHT22;847;48.058;7.810;2022-09-17T13:31:20;16.60;73.20
1700;DHT22;847;48.058;7.810;2022-09-17T13:33:55;16.50;73.50
1700;DHT22;847;48.058;7.810;2022-09-17T13:36:36;16.40;73.50
1700;DHT22;847;48.058;7.810;2022-09-17T13:39:05;16.40;73.30
1700;DHT22;847;48.058;7.810;2022-09-17T13:41:35;16.60;73.20
1700;DHT22;847;48.058;7.810;2022-09-17T13:44:03;16.70;72.10
1700;DHT22;847;48.058;7.810;2022-09-17T13:46:33;16.80;71.40
1700;DHT22;847;48.058;7.810;2022-09-17T13:49:02;17.00;72.40
1700;DHT22;847;48.058;7.810;2022-09-17T13:51:50;17.00;69.60
1700;DHT22;847;48.058;7.810;2022-09-17T13:54:19;16.80;71.90
1700;DHT22;847;48.058;7.810;2022-09-17T13:57:04;16.70;71.50
1700;DHT22;847;48.058;7.810;2022-09-17T13:59:33;16.60;72.10
1700;DHT22;847;48.058;7.810;2022-09-17T14:02:28;16.50;70.40
1700;DHT22;847;48.058;7.810;2022-09-17T14:04:55;16.50;69.40
1700;DHT22;847;48.058;7.810;2022-09-17T14:07:45;16.40;71.00
1700;DHT22;847;48.058;7.810;2022-09-17T14:10:33;16.40;72.10
1700;DHT22;847;48.058;7.810;2022-09-17T14:13:23;16.30;71.40
1700;DHT22;847;48.058;7.810;2022-09-17T14:15:58;16.40;72.60
1700;DHT22;847;48.058;7.810;2022-09-17T14:18:35;16.20;70.90
1700;DHT22;847;48.058;7.810;2022-09-17T14:21:13;16.20;71.80
1700;DHT22;847;48.058;7.810;2022-09-17T14:23:43;16.30;72.10
1700;DHT22;847;48.058;7.810;2022-09-17T14:26:17;16.40;72.20
1700;DHT22;847;48.058;7.810;2022-09-17T14:28:49;16.40;70.80
1700;DHT22;847;48.058;7.810;2022-09-17T14:31:21;16.40;71.40
1700;DHT22;847;48.058;7.810;2022-09-17T14:33:51;16.40;72.40
1700;DHT22;847;48.058;7.810;2022-09-17T14:36:20;16.40;71.90
1700;DHT22;847;48.058;7.810;2022-09-17T14:38:50;16.40;73.00
1700;DHT22;847;48.058;7.810;2022-09-17T14:41:20;16.30;72.10
1700;DHT22;847;48.058;7.810;2022-09-17T14:43:52;16.30;72.60
1700;DHT22;847;48.058;7.810;2022-09-17T14:46:21;16.40;72.60
1700;DHT22;847;48.058;7.810;2022-09-17T14:48:48;16.50;73.80
1700;DHT22;847;48.058;7.810;2022-09-17T14:51:26;16.50;74.40
1700;DHT22;847;48.058;7.810;2022-09-17T14:54:14;16.40;73.50
1700;DHT22;847;48.058;7.810;2022-09-17T14:56:52;16.40;74.20
1700;DHT22;847;48.058;7.810;2022-09-17T14:59:30;16.40;74.40
1700;DHT22;847;48.058;7.810;2022-09-17T15:01:59;16.40;74.50
1700;DHT22;847;48.058;7.810;2022-09-17T15:04:27;16.40;74.30
1700;DHT22;847;48.058;7.810;2022-09-17T15:07:07;16.50;73.70
1700;DHT22;847;48.058;7.810;2022-09-17T15:09:34;16.70;70.80
1700;DHT22;847;48.058;7.810;2022-09-17T15:12:03;16.80;70.30
1700;DHT22;847;48.058;7.810;2022-09-17T15:14:33;16.70;70.20
1700;DHT22;847;48.058;7.810;2022-09-17T15:17:01;16.90;69.90
1700;DHT22;847;48.058;7.810;2022-09-17T15:19:32;17.00;70.40
1700;DHT22;847;48.058;7.810;2022-09-17T15:22:04;17.10;69.60
1700;DHT22;847;48.058;7.810;2022-09-17T15:24:38;17.30;68.40
1700;DHT22;847;48.058;7.810;2022-09-17T15:27:11;17.30;67.60
1700;DHT22;847;48.058;7.810;2022-09-17T15:29:41;17.40;68.50
1700;DHT22;847;48.058;7.810;2022-09-17T15:32:11;17.50;68.80
1700;DHT22;847;48.058;7.810;2022-09-17T15:34:39;17.60;69.20
1700;DHT22;847;48.058;7.810;2022-09-17T15:37:15;17.40;68.00
1700;DHT22;847;48.058;7.810;2022-09-17T15:39:47;17.40;69.60
1700;DHT22;847;48.058;7.810;2022-09-17T15:42:20;17.40;69.80
1700;DHT22;847;48.058;7.810;2022-09-17T15:44:48;17.30;70.10
1700;DHT22;847;48.058;7.810;2022-09-17T15:47:48;17.00;71.00
1700;DHT22;847;48.058;7.810;2022-09-17T15:50:18;17.20;70.40
1700;DHT22;847;48.058;7.810;2022-09-17T15:52:46;17.30;70.00
1700;DHT22;847;48.058;7.810;2022-09-17T15:55:33;17.40;70.50
1700;DHT22;847;48.058;7.810;2022-09-17T15:58:02;17.50;71.50
1700;DHT22;847;48.058;7.810;2022-09-17T16:00:29;17.40;71.00
1700;DHT22;847;48.058;7.810;2022-09-17T16:02:57;17.40;71.10
1700;DHT22;847;48.058;7.810;2022-09-17T16:05:48;17.30;72.10
1700;DHT22;847;48.058;7.810;2022-09-17T16:08:20;17.10;72.60
1700;DHT22;847;48.058;7.810;2022-09-17T16:10:49;17.10;73.00
1700;DHT22;847;48.058;7.810;2022-09-17T16:13:15;17.10;71.90
1700;DHT22;847;48.058;7.810;2022-09-17T16:15:42;17.10;71.60
1700;DHT22;847;48.058;7.810;2022-09-17T16:18:12;17.10;71.80
1700;DHT22;847;48.058;7.810;2022-09-17T16:20:40;17.20;72.60
1700;DHT22;847;48.058;7.810;2022-09-17T16:23:07;17.10;71.60
1700;DHT22;847;48.058;7.810;2022-09-17T16:25:33;16.80;72.20
1700;DHT22;847;48.058;7.810;2022-09-17T16:28:07;16.70;72.10
1700;DHT22;847;48.058;7.810;2022-09-17T16:30:35;16.50;72.00
1700;DHT22;847;48.058;7.810;2022-09-17T16:33:02;16.50;73.10
1700;DHT22;847;48.058;7.810;2022-09-17T16:35:31;16.50;73.90
1700;DHT22;847;48.058;7.810;2022-09-17T16:37:58;16.60;74.50
1700;DHT22;847;48.058;7.810;2022-09-17T16:40:25;16.50;73.70
1700;DHT22;847;48.058;7.810;2022-09-17T16:42:53;16.40;73.80
1700;DHT22;847;48.058;7.810;2022-09-17T16:45:23;16.20;75.00
1700;DHT22;847;48.058;7.810;2022-09-17T16:47:50;16.20;74.80
1700;DHT22;847;48.058;7.810;2022-09-17T16:50:17;16.10;74.60
1700;DHT22;847;48.058;7.810;2022-09-17T16:52:44;16.20;74.20
1700;DHT22;847;48.058;7.810;2022-09-17T16:55:12;16.00;74.80